EDT,Max TemperatureF,Mean TemperatureF,Min TemperatureF,Max Dew PointF,MeanDew PointF,Min DewpointF,Max Humidity, Mean Humidity, Min Humidity, Max Sea Level PressureIn, Mean Sea Level PressureIn, Min Sea Level PressureIn, Max VisibilityMiles, Mean VisibilityMiles, Min VisibilityMiles, Max Wind SpeedMPH, Mean Wind SpeedMPH, Max Gust SpeedMPH,PrecipitationIn, CloudCover, Events, WindDirDegrees
2012-9-1,78,68,57,65,58,50,87,73,54,30.16,30.12,30.08,10,10,10,15,5,,0.00,0,,23
2012-9-2,82,70,57,63,60,55,90,74,45,30.10,30.05,30.00,10,10,10,16,8,,0.00,0,,54
2012-9-3,86,70,55,64,60,54,93,70,44,30.02,29.97,29.90,10,10,10,9,4,,0.00,0,,50
2012-9-4,82,74,68,68,66,64,94,82,58,29.92,29.89,29.86,10,8,1,21,6,29,1.42,5,Rain,36
2012-9-5,82,73,64,70,67,61,93,78,61,29.88,29.81,29.76,10,8,4,15,6,23,0.01,2,,198
2012-9-6,81,70,60,62,59,55,94,69,44,29.93,29.89,29.82,10,10,8,9,4,,0.00,2,,310
2012-9-7,72,64,57,59,55,52,90,74,49,29.93,29.85,29.75,10,10,6,15,5,,0.20,4,Rain,348
2012-9-8,71,62,54,55,52,48,93,73,47,29.86,29.76,29.70,10,10,10,20,10,25,0.15,5,Rain,300
2012-9-9,72,60,50,49,46,42,93,64,36,30.13,29.99,29.86,10,10,10,13,4,,0.00,2,,338
2012-9-10,73,60,48,51,48,43,89,65,42,30.24,30.18,30.14,10,10,10,8,4,,0.00,1,,237
2012-9-11,80,66,53,55,51,46,80,61,39,30.19,30.14,30.10,10,10,10,22,9,29,0.00,0,,200
2012-9-12,82,70,57,59,55,51,81,60,38,30.18,30.15,30.11,10,10,10,15,9,24,0.00,0,,200
2012-9-13,79,66,55,62,57,51,94,76,58,30.31,30.22,30.16,10,10,7,17,8,,0.01,6,Rain,269
2012-9-14,73,61,50,52,47,41,96,67,34,30.31,30.28,30.22,10,10,10,14,8,21,0.13,3,Rain,310
2012-9-15,71,58,45,49,46,42,93,66,42,30.35,30.27,30.16,10,10,10,9,4,,0.01,1,,261
2012-9-16,78,64,52,55,48,45,77,59,34,30.15,30.07,30.00,10,10,10,14,8,17,0.00,0,,222
2012-9-17,77,66,54,55,51,47,80,62,43,30.01,29.86,29.67,10,10,10,16,8,22,0.00,1,,195
2012-9-18,64,54,42,57,45,36,89,70,44,29.96,29.76,29.65,10,10,10,20,11,30,0.05,6,Rain,309
2012-9-19,66,52,37,41,37,31,89,59,31,30.09,30.01,29.91,10,10,10,14,7,24,0.00,2,Rain,210
2012-9-20,69,61,53,49,43,38,77,57,38,29.90,29.85,29.82,10,10,9,20,12,26,0.04,3,Rain,220
2012-9-21,66,56,46,49,44,38,93,70,37,29.92,29.87,29.78,10,10,10,21,7,28,0.01,3,Rain,220
2012-9-22,59,50,42,47,44,38,100,82,49,30.07,29.81,29.69,10,8,0,18,8,24,0.03,4,Fog-Rain,251
2012-9-23,57,46,37,41,38,34,93,74,45,30.22,30.16,30.08,10,10,9,17,9,25,0.01,4,Rain,265
2012-9-24,64,50,37,40,36,33,89,61,33,30.20,30.04,29.86,10,10,10,28,11,36,0.00,0,,218
2012-9-25,73,62,51,51,45,34,81,55,38,29.90,29.86,29.80,10,10,10,18,13,24,0.00,0,,213
2012-9-26,66,58,50,52,47,41,84,68,40,30.19,30.03,29.90,10,10,9,10,6,,0.00,3,,35
2012-9-27,64,54,43,48,44,40,90,70,43,30.30,30.24,30.20,10,10,9,12,6,,0.00,5,,51
2012-9-28,69,57,46,46,43,37,89,65,34,30.20,30.15,30.10,10,10,10,8,2,,0.00,2,,318
2012-9-29,71,58,44,50,43,37,90,68,29,30.11,30.04,29.96,10,10,10,10,4,17,0.00,1,,321
2012-9-30,62,54,45,48,46,42,93,75,56,30.02,29.99,29.97,10,10,10,17,8,21,0.00,3,Rain,29